LFLYLFBL

Guest
Details From LFLY - Lyon Bron
To LFBL - Limoges Bellegarde
Flight Number -
Tags generated
Created
Modified
Stats Distance 158 nm / 292 km
Max Altitude 0 ft / 0 m
Waypoints 3
Social Downloads 0
Likes 0
Share VATSIM

Download

Looking for another format? Having issues loading an existing format? Contact us
Advertisement - Login to hide

Notes

None

Route

LFLY CFA LFBL

ID Type Via Altitude Latitude Longitude Leg Dist Tot Dist Heading (true) Name
O LFLY APT - 0 ft / 0 m 45.72717˚ 4.94427˚ - 0 nm - Lyon Bron
CFA VOR - 0 ft / 0 m 45.78747˚ 3.19219˚ 73 nm 73 nm 273° / 272° CLERMONT FERRAND AUVERGNE VOR-
O LFBL APT - 0 ft / 0 m 45.86190˚ 1.18137˚ 84 nm 157 nm 274° / 272° Limoges Bellegarde

Altitude Profile

Advertisement - Login to hide

LFLY

Details ICAO LFLY (LYN)
Name Lyon Bron
Region France
Timezone Europe/Paris (UTC+2.0)
Stats Elevation 659 ft / 201 m (AMSL)
Location 45.727171° 4.944274°
Runways 1
Magnetic Variation 1.504° E

METAR

LFLY 261400Z AUTO 26004KT 220V300 CAVOK 28/14 Q1016 NOSIG

Decode

TAF

TAF LFLY 261100Z 2612/2712 VRB03KT CAVOK PROB40 TEMPO 2700/2708 FEW060CB BKN140

Decode

Departure Runways

ID Width Length Bearing (true) Bearing (mag) Surface Threshold Offset Overrun Length
16 148 ft / 45 m 5,972 ft / 1,820 m 163.44° 161.94° Asphalt 984 ft / 300 m 0 ft / 0 m
34 148 ft / 45 m 5,972 ft / 1,820 m 343.44° 341.94° Asphalt 984 ft / 300 m 0 ft / 0 m

LFBL

Details ICAO LFBL (LIG)
Name Limoges Bellegarde
Region France
Timezone Europe/Paris (UTC+2.0)
Stats Elevation 1,300 ft / 396 m (AMSL)
Location 45.861896° 1.181368°
Runways 1
Magnetic Variation 0.479° E

METAR

LFBL 261400Z AUTO 15016KT 110V180 9999 ///CB 26/12 Q1013 TEMPO 14015G25KT 4000 TSRA

Decode

TAF

TAF AMD LFBL 261346Z 2613/2712 14010KT CAVOK PROB40 TEMPO 2614/2616 14015G25KT 4000 TSRA BKN030 BKN050CB PROB30 TEMPO 2617/2624 SCT060TCU

Decode

Destination Runways

ID Width Length Bearing (true) Bearing (mag) Surface Threshold Offset Overrun Length
03 148 ft / 45 m 8,202 ft / 2,500 m 33.16° 32.68° Asphalt 0 ft / 0 m 0 ft / 0 m
21 148 ft / 45 m 8,202 ft / 2,500 m 213.18° 212.70° Asphalt 196 ft / 60 m 0 ft / 0 m

Approach Navaids

Runway Type Ident Frequency Range Bearing (true) Bearing (mag) Slope Elevation
03 Localiser LG 109.29 MHz 18 nm / 33 km 33.10° 32.62° - 1,299 ft / 396 m (AMSL)
03 Glidescope LG 109.29 MHz 10 nm / 19 km 33.17° 32.69° 3.00° 1,299 ft / 396 m (AMSL)
21 Localiser LG 110.10 MHz 18 nm / 33 km 213.16° 212.68° - 1,271 ft / 387 m (AMSL)
21 Glidescope LG 110.10 MHz 10 nm / 19 km 213.17° 212.69° 3.00° 1,271 ft / 387 m (AMSL)
21 DME LG 110.10 MHz 18 nm / 33 km - - - 1,340 ft / 408 m (AMSL)